Aeroporto :
LOGIN :

Iscrizione | Disclaimer

   EN    FR    IT 

 










Sommario :    VFR   VFR Marginale   IFR   IFR Intensivo   IFR Molto Intensivo
Visibilità : 
Base nubi : 
>= 8 km
>= 3000ft
5 / 8 km
1000 / 3000 ft
1500m / 5 km
500 / 1000 ft
800 / 1500m
200 / 500 ft
< 800m
< 200 ft
Simboli :   Temporali  Nebbia  Neve Forte  Precipitazioni Forti  Vento > 20 kt
SIGMETs :   Varie  Temporali  Ghiacco  Turbolenza  Onda orograficha  Ceneri Vulcaniche






- Altitudine del aeroporto : 1910 ft
- Codice IATA : RDZ


LFCR - Rodez

ULTIMO METAR :
  • 250930Z AUTO VRB04KT CAVOK 25/16 Q1013 NOSIG

METARs OBSOLETI :
  • 250900Z AUTO VRB02KT CAVOK 24/14 Q1013 NOSIG
  • 250830Z AUTO VRB03KT CAVOK 23/14 Q1013 NOSIG
  • 250800Z AUTO VRB02KT CAVOK 23/15 Q1013 NOSIG
  • 250730Z AUTO VRB02KT CAVOK 22/15 Q1013 NOSIG
  • 250700Z AUTO 06003KT 020V110 CAVOK 20/16 Q1014 NOSIG
  • 250630Z AUTO 14003KT CAVOK 18/14 Q1013 NOSIG
  • 250600Z AUTO 13003KT CAVOK 17/14 Q1013 NOSIG
  • 250530Z AUTO VRB01KT CAVOK 15/12 Q1014 NOSIG
  • 250500Z AUTO 09002KT CAVOK 14/13 Q1013 NOSIG

TAF TAF LFCR
Valido dal 25 a 06 ore il 26 a 06 ore UTC


250500Z 2506/2606 VRB01KT CAVOK
PROB40
TEMPO 2509/2512 SCT040
PROB40
TEMPO 2512/2517 FEW060CB
BECMG 2519/2521 14010KT



MetMap, La meteo Aeronautica in un colpo d'occhio ! - Copyright ORBIFLY Dicembre 2007 - Disclaimer

ORBIFLY MET'MAP TEAM :

Programmazione e sviluppo : Alexandra Zaïnal
Concezione : Baudouin d'Aumeries
Supporto tecnico e logistico : Manuel Goepfert
Aiuto : Marc-Olivier Méhu
Aiuto per la traduzione : Arnaldo La Scala




FONTI E CREDITI :

   NOAA